National Weather Service United States Department of Commerce

Heavy Rainfall, Gusty Winds, and Flooding Over Parts of the East

Low pressure interacting with Zeta will bring widespread heavy rainfall, areas of flooding, and gusty winds from the Ohio Valley to the East Coast. As a coastal storm develops off the Northeast coast on Friday, another round of heavy rainfall is possible for the northern Mid-Atlantic, with wintry precipitation over interior New England. Read More >

FAA logo - Click to go to the FAA homepage

NY TRACON Strategic Planning Aid (SPA)

For ATC Planning Purposes Only - Page refreshes every 5 minutes - See AviationWeather.gov if data is not current
NWS logo - Click to go to the NWS homepage

Pre-Duty Weather Briefing


YELLOW TABS indicate TAF updated within last 30 minutes. RED TABS indicate TAF updated within last 5 minutes.

  • TAF Board
  • Discussion
  • Current Conditions
  • Snow/Ice

Potential Impact None Slight Moderate High
Valid at: 0300 UTC 30 Oct 2020
TimeOBS30/03Z30/04Z30/05Z30/06Z30/07Z30/08Z30/09Z30/10Z30/11Z30/12Z30/13Z30/14Z30/15Z>>
KJFK WX VIS VIS VIS VIS VIS VIS VIS VIS VIS VIS VIS VIS VIS
KLGA WX VIS VIS VIS VIS VIS VIS VIS VIS VIS VIS VIS VIS VIS
KEWR VIS WGst WGst WGst WGst WGst WGst WGst WGst WX WX WX WSpd WSpd
KTEB                            
KHPN                       WX WX WX
KISP                            
TimeOBS30/03Z30/04Z30/05Z30/06Z30/07Z30/08Z30/09Z30/10Z30/11Z30/12Z30/13Z30/14Z30/15Z

IMPORTANT: ITWS wind directions are magnetic. METAR/TAF winds are true. Add 13 degrees to METAR/TAF wind to get the magnetic direction.

Latest METAR:
METAR KJFK 300151Z 03014KT 5SM -RA BR BKN012 OVC033 09/08 A2960 RMK AO2
     PK WND 03028/0054 SLP023 P0003 T00890078 $
Latest TAF:

Older TAFs
TAF Impact Board
ITWS Winds (GRAPH)
5-min ASOS Data
Hourly Temperature Forecast
General Public Forecast

IMPORTANT: ITWS wind directions are magnetic. METAR/TAF winds are true. Add 13 degrees to METAR/TAF wind to get the magnetic direction.

Latest METAR:
SPECI KLGA 300209Z 03015KT 5SM -RA BR OVC010 09/07 A2962 RMK AO2 P0000
     T00890072
Latest TAF:

Older TAFs
TAF Impact Board
ITWS Winds (GRAPH)
5-min ASOS Data
Hourly Temperature Forecast
General Public Forecast

IMPORTANT: ITWS wind directions are magnetic. METAR/TAF winds are true. Add 13 degrees to METAR/TAF wind to get the magnetic direction.

Latest METAR:
SPECI KEWR 300206Z 01012KT 2SM -RA BR BKN008 OVC014 09/08 A2962 RMK AO2
     SFC VIS 4 P0000 T00890078
Latest TAF:

Older TAFs
TAF Impact Board
ITWS Winds (GRAPH)
5-min ASOS Data
Hourly Temperature Forecast
General Public Forecast

IMPORTANT: ITWS wind directions are magnetic. METAR/TAF winds are true. Add 13 degrees to METAR/TAF wind to get the magnetic direction.

Latest METAR:
SPECI KTEB 300222Z 02007KT 4SM -RA BR SCT007 OVC013 08/07 A2962 RMK AO2
     P0001 T00830067
Latest TAF:

Older TAFs
TAF Impact Board
5-min ASOS Data
Hourly Temperature Forecast
General Public Forecast

IMPORTANT: ITWS wind directions are magnetic. METAR/TAF winds are true. Add 13 degrees to METAR/TAF wind to get the magnetic direction.

Latest METAR:
METAR KHPN 300156Z 02009KT 5SM -RA BR FEW009 BKN014 OVC021 07/06 A2961
     RMK AO2 SLP031 P0001 T00720061 $
Latest TAF:

Older TAFs
TAF Impact Board
5-min ASOS Data
Hourly Temperature Forecast
General Public Forecast

IMPORTANT: ITWS wind directions are magnetic. METAR/TAF winds are true. Add 13 degrees to METAR/TAF wind to get the magnetic direction.

Latest METAR:
SPECI KISP 300227Z 03013G21KT 2SM -RA BR BKN009 OVC014 09/08 A2960 RMK
     AO2 P0004 T00890083
Latest TAF:

Older TAFs
TAF Impact Board
5-min ASOS Data
Hourly Temperature Forecast
General Public Forecast

 

Forecast Discussion Prepared at 
 
5-Day Outlook
 

 

Click on Radar and Satellite images below for a loop.

Radar Loop

Radar Loop

Regional Flight Category Map

Flight Category

Visible Satellite Loop

Visible Satellite

Infrared Satellite Loop

IR Satellite

Expected Snowfall

Expected Snowfall

Expected Ice Accumulation

Expected Ice Accumulation

Click here for detailed Snow/Ice Info

PIREPs     SIGMETs     AIRMETs     ZNY CWA/MIS     ZBW CWA/MIS

Click on images below to enlarge.

Morning SWAP Statement

(Updated daily April 1 - September 30)

 

Radar Loop

Radar Loop

Convective SIGMETs

Convective SIGMETs

TFM Convective Forecast (TCF)

4-hr TCF

Day 1 SWAP Forecast

Day 1 SWAP Forecast

Day 2 SWAP Outlook

Day 2 SWAP Outlook

Day 3 SWAP Outlook

Day 3 SWAP Outlook

N90 Thunderstorm TDA

N90 Thunderstorm TDA

International Departure Gate Forecast

International Departure Gate Forecast

Domestic Arrival/Departure Fix Forecast

Domestic Arrival/Departure Fix Forecast

N90 Icing TDA

N90 Icing TDA

Current Icing SIGMETs

Icing SIGMETs

Recent Icing PIREPs

Icing PIREPs

00-03 hr Icing AIRMETs

0-3 hr Icing AIRMETs

03-06 hr Icing AIRMETs

3-6 hr Icing AIRMETs

06-09 hr Icing AIRMETs

6-9 hr Icing AIRMETs

 

CIP/FIP Icing Guidance

CIP/FIP Icing Guidance

 

Current Turb SIGMETs

Turb SIGMETs

Recent Turb/LLWS PIREPs

Turb/LLWS PIREPs

Turbulence Guidance (GTG)

GTG

00-03 hr Turb/LLWS AIRMETs

0-3 hr Turb/LLWS AIRMETs

03-06 hr Turb/LLWS AIRMETs

3-6 hr Turb/LLWS AIRMETs

06-09 hr Turb/LLWS AIRMETs

6-9 hr Turb/LLWS AIRMETs

N90 Compression Outlook

N90 Compression Outlook

N90 Compression TDA

N90 Compression TDA